sensor_id;sensor_type;location;lat;lon;timestamp;P1;durP1;ratioP1;P2;durP2;ratioP2
5937;SDS011;2994;51.220;4.412;2022-07-23T00:00:51;6.63;;;5.80;;
5937;SDS011;2994;51.220;4.412;2022-07-23T00:03:17;6.90;;;6.30;;
5937;SDS011;2994;51.220;4.412;2022-07-23T00:05:43;9.40;;;6.27;;
5937;SDS011;2994;51.220;4.412;2022-07-23T00:08:08;7.20;;;6.50;;
5937;SDS011;2994;51.220;4.412;2022-07-23T00:10:34;7.03;;;5.93;;
5937;SDS011;2994;51.220;4.412;2022-07-23T00:13:00;6.50;;;5.90;;
5937;SDS011;2994;51.220;4.412;2022-07-23T00:15:26;7.37;;;6.00;;
5937;SDS011;2994;51.220;4.412;2022-07-23T00:17:51;6.90;;;6.20;;
5937;SDS011;2994;51.220;4.412;2022-07-23T00:20:17;7.30;;;5.77;;
5937;SDS011;2994;51.220;4.412;2022-07-23T00:22:53;7.40;;;5.90;;
5937;SDS011;2994;51.220;4.412;2022-07-23T00:25:20;6.60;;;5.60;;
5937;SDS011;2994;51.220;4.412;2022-07-23T00:27:47;7.80;;;5.97;;
5937;SDS011;2994;51.220;4.412;2022-07-23T00:30:12;6.50;;;5.50;;
5937;SDS011;2994;51.220;4.412;2022-07-23T00:32:48;6.40;;;5.77;;
5937;SDS011;2994;51.220;4.412;2022-07-23T00:35:15;7.03;;;6.37;;
5937;SDS011;2994;51.220;4.412;2022-07-23T00:37:41;6.37;;;5.73;;
5937;SDS011;2994;51.220;4.412;2022-07-23T00:40:07;6.37;;;5.77;;
5937;SDS011;2994;51.220;4.412;2022-07-23T00:42:33;7.20;;;6.23;;
5937;SDS011;2994;51.220;4.412;2022-07-23T00:44:59;6.40;;;5.73;;
5937;SDS011;2994;51.220;4.412;2022-07-23T00:47:24;6.80;;;5.87;;
5937;SDS011;2994;51.220;4.412;2022-07-23T00:49:50;6.10;;;5.37;;
5937;SDS011;2994;51.220;4.412;2022-07-23T00:52:15;8.17;;;5.97;;
5937;SDS011;2994;51.220;4.412;2022-07-23T00:54:41;6.83;;;6.17;;
5937;SDS011;2994;51.220;4.412;2022-07-23T00:57:06;7.00;;;5.20;;
5937;SDS011;2994;51.220;4.412;2022-07-23T00:59:32;5.93;;;5.40;;
5937;SDS011;2994;51.220;4.412;2022-07-23T01:01:57;10.17;;;6.70;;
5937;SDS011;2994;51.220;4.412;2022-07-23T01:04:22;6.50;;;5.90;;
5937;SDS011;2994;51.220;4.412;2022-07-23T01:06:48;7.20;;;6.50;;
5937;SDS011;2994;51.220;4.412;2022-07-23T01:09:14;6.90;;;5.80;;
5937;SDS011;2994;51.220;4.412;2022-07-23T01:11:39;6.60;;;5.90;;
5937;SDS011;2994;51.220;4.412;2022-07-23T01:14:16;6.63;;;4.87;;
5937;SDS011;2994;51.220;4.412;2022-07-23T01:16:43;7.37;;;5.37;;
5937;SDS011;2994;51.220;4.412;2022-07-23T01:19:09;7.37;;;6.67;;
5937;SDS011;2994;51.220;4.412;2022-07-23T01:21:36;6.10;;;5.60;;
5937;SDS011;2994;51.220;4.412;2022-07-23T01:24:09;7.17;;;5.40;;
5937;SDS011;2994;51.220;4.412;2022-07-23T01:26:35;7.10;;;6.07;;
5937;SDS011;2994;51.220;4.412;2022-07-23T01:29:01;6.33;;;5.63;;
5937;SDS011;2994;51.220;4.412;2022-07-23T01:31:27;6.97;;;6.30;;
5937;SDS011;2994;51.220;4.412;2022-07-23T01:33:53;7.33;;;5.87;;
5937;SDS011;2994;51.220;4.412;2022-07-23T01:36:18;8.23;;;6.50;;
5937;SDS011;2994;51.220;4.412;2022-07-23T01:38:44;6.30;;;5.40;;
5937;SDS011;2994;51.220;4.412;2022-07-23T01:41:09;9.00;;;6.20;;
5937;SDS011;2994;51.220;4.412;2022-07-23T01:43:35;7.50;;;5.77;;
5937;SDS011;2994;51.220;4.412;2022-07-23T01:46:00;6.57;;;5.57;;
5937;SDS011;2994;51.220;4.412;2022-07-23T01:48:25;5.97;;;5.40;;
5937;SDS011;2994;51.220;4.412;2022-07-23T01:50:51;6.03;;;5.20;;
5937;SDS011;2994;51.220;4.412;2022-07-23T01:53:16;6.07;;;5.43;;
5937;SDS011;2994;51.220;4.412;2022-07-23T01:55:42;5.73;;;5.23;;
5937;SDS011;2994;51.220;4.412;2022-07-23T01:58:08;8.10;;;6.20;;
5937;SDS011;2994;51.220;4.412;2022-07-23T02:00:34;5.87;;;5.37;;
5937;SDS011;2994;51.220;4.412;2022-07-23T02:02:59;8.50;;;5.80;;
5937;SDS011;2994;51.220;4.412;2022-07-23T02:05:25;6.50;;;5.90;;
5937;SDS011;2994;51.220;4.412;2022-07-23T02:07:51;11.90;;;6.90;;
5937;SDS011;2994;51.220;4.412;2022-07-23T02:10:17;6.53;;;5.93;;
5937;SDS011;2994;51.220;4.412;2022-07-23T02:12:42;6.73;;;5.67;;
5937;SDS011;2994;51.220;4.412;2022-07-23T02:15:08;7.33;;;6.07;;
5937;SDS011;2994;51.220;4.412;2022-07-23T02:17:33;8.17;;;6.03;;
5937;SDS011;2994;51.220;4.412;2022-07-23T02:19:59;9.10;;;5.97;;
5937;SDS011;2994;51.220;4.412;2022-07-23T02:22:24;8.57;;;6.53;;
5937;SDS011;2994;51.220;4.412;2022-07-23T02:24:50;7.63;;;6.70;;
5937;SDS011;2994;51.220;4.412;2022-07-23T02:27:15;6.17;;;5.57;;
5937;SDS011;2994;51.220;4.412;2022-07-23T02:29:41;7.00;;;6.30;;
5937;SDS011;2994;51.220;4.412;2022-07-23T02:32:06;7.77;;;7.00;;
5937;SDS011;2994;51.220;4.412;2022-07-23T02:34:32;6.73;;;6.13;;
5937;SDS011;2994;51.220;4.412;2022-07-23T02:36:57;8.30;;;5.90;;
5937;SDS011;2994;51.220;4.412;2022-07-23T02:39:23;7.03;;;6.33;;
5937;SDS011;2994;51.220;4.412;2022-07-23T02:41:48;6.90;;;6.20;;
5937;SDS011;2994;51.220;4.412;2022-07-23T02:44:13;7.83;;;6.00;;
5937;SDS011;2994;51.220;4.412;2022-07-23T02:46:39;6.60;;;5.73;;
5937;SDS011;2994;51.220;4.412;2022-07-23T02:49:04;8.47;;;7.33;;
5937;SDS011;2994;51.220;4.412;2022-07-23T02:51:30;6.90;;;6.07;;
5937;SDS011;2994;51.220;4.412;2022-07-23T02:53:56;7.27;;;6.10;;
5937;SDS011;2994;51.220;4.412;2022-07-23T02:56:21;8.37;;;6.13;;
5937;SDS011;2994;51.220;4.412;2022-07-23T02:58:47;7.13;;;6.07;;
5937;SDS011;2994;51.220;4.412;2022-07-23T03:01:12;7.40;;;6.30;;
5937;SDS011;2994;51.220;4.412;2022-07-23T03:03:37;7.80;;;5.87;;
5937;SDS011;2994;51.220;4.412;2022-07-23T03:06:03;6.50;;;5.90;;
5937;SDS011;2994;51.220;4.412;2022-07-23T03:08:28;7.20;;;6.50;;
5937;SDS011;2994;51.220;4.412;2022-07-23T03:10:54;6.60;;;5.87;;
5937;SDS011;2994;51.220;4.412;2022-07-23T03:13:19;7.57;;;6.57;;
5937;SDS011;2994;51.220;4.412;2022-07-23T03:15:45;6.77;;;6.07;;
5937;SDS011;2994;51.220;4.412;2022-07-23T03:18:10;8.77;;;7.07;;
5937;SDS011;2994;51.220;4.412;2022-07-23T03:20:36;7.60;;;6.43;;
5937;SDS011;2994;51.220;4.412;2022-07-23T03:23:01;7.00;;;6.30;;
5937;SDS011;2994;51.220;4.412;2022-07-23T03:25:27;10.17;;;6.40;;
5937;SDS011;2994;51.220;4.412;2022-07-23T03:27:52;7.27;;;6.53;;
5937;SDS011;2994;51.220;4.412;2022-07-23T03:30:18;7.40;;;6.70;;
5937;SDS011;2994;51.220;4.412;2022-07-23T03:32:43;6.67;;;5.63;;
5937;SDS011;2994;51.220;4.412;2022-07-23T03:35:09;7.90;;;7.20;;
5937;SDS011;2994;51.220;4.412;2022-07-23T03:37:35;9.77;;;6.50;;
5937;SDS011;2994;51.220;4.412;2022-07-23T03:40:00;9.33;;;6.77;;
5937;SDS011;2994;51.220;4.412;2022-07-23T03:42:26;8.03;;;6.80;;
5937;SDS011;2994;51.220;4.412;2022-07-23T03:44:52;7.60;;;6.90;;
5937;SDS011;2994;51.220;4.412;2022-07-23T03:47:17;8.23;;;6.13;;
5937;SDS011;2994;51.220;4.412;2022-07-23T03:49:46;7.53;;;6.47;;
5937;SDS011;2994;51.220;4.412;2022-07-23T03:52:12;7.90;;;6.47;;
5937;SDS011;2994;51.220;4.412;2022-07-23T03:54:37;9.43;;;7.10;;
5937;SDS011;2994;51.220;4.412;2022-07-23T03:57:03;8.63;;;6.80;;
5937;SDS011;2994;51.220;4.412;2022-07-23T03:59:28;7.87;;;6.97;;
5937;SDS011;2994;51.220;4.412;2022-07-23T04:01:54;6.93;;;6.00;;
5937;SDS011;2994;51.220;4.412;2022-07-23T04:04:19;7.40;;;6.70;;
5937;SDS011;2994;51.220;4.412;2022-07-23T04:06:45;6.77;;;5.87;;
5937;SDS011;2994;51.220;4.412;2022-07-23T04:09:10;8.30;;;6.67;;
5937;SDS011;2994;51.220;4.412;2022-07-23T04:11:36;7.70;;;7.00;;
5937;SDS011;2994;51.220;4.412;2022-07-23T04:14:02;9.73;;;7.00;;
5937;SDS011;2994;51.220;4.412;2022-07-23T04:16:27;8.30;;;7.50;;
5937;SDS011;2994;51.220;4.412;2022-07-23T04:18:53;8.70;;;7.00;;
5937;SDS011;2994;51.220;4.412;2022-07-23T04:21:19;10.07;;;7.13;;
5937;SDS011;2994;51.220;4.412;2022-07-23T04:23:44;11.70;;;6.93;;
5937;SDS011;2994;51.220;4.412;2022-07-23T04:26:10;6.93;;;6.23;;
5937;SDS011;2994;51.220;4.412;2022-07-23T04:28:35;8.87;;;7.40;;
5937;SDS011;2994;51.220;4.412;2022-07-23T04:31:01;8.20;;;7.03;;
5937;SDS011;2994;51.220;4.412;2022-07-23T04:33:26;8.17;;;6.60;;
5937;SDS011;2994;51.220;4.412;2022-07-23T04:35:52;7.60;;;6.70;;
5937;SDS011;2994;51.220;4.412;2022-07-23T04:38:17;7.70;;;7.00;;
5937;SDS011;2994;51.220;4.412;2022-07-23T04:40:43;7.33;;;6.63;;
5937;SDS011;2994;51.220;4.412;2022-07-23T04:43:08;7.10;;;6.30;;
5937;SDS011;2994;51.220;4.412;2022-07-23T04:45:33;7.93;;;6.50;;
5937;SDS011;2994;51.220;4.412;2022-07-23T04:47:59;7.00;;;6.30;;
5937;SDS011;2994;51.220;4.412;2022-07-23T04:50:24;7.20;;;6.60;;
5937;SDS011;2994;51.220;4.412;2022-07-23T04:52:50;9.60;;;6.20;;
5937;SDS011;2994;51.220;4.412;2022-07-23T04:55:16;7.80;;;5.70;;
5937;SDS011;2994;51.220;4.412;2022-07-23T04:57:41;7.53;;;6.03;;
5937;SDS011;2994;51.220;4.412;2022-07-23T05:00:07;7.70;;;6.90;;
5937;SDS011;2994;51.220;4.412;2022-07-23T05:02:33;8.90;;;6.37;;
5937;SDS011;2994;51.220;4.412;2022-07-23T05:04:58;6.87;;;6.17;;
5937;SDS011;2994;51.220;4.412;2022-07-23T05:07:24;9.40;;;7.43;;
5937;SDS011;2994;51.220;4.412;2022-07-23T05:09:49;8.77;;;7.33;;
5937;SDS011;2994;51.220;4.412;2022-07-23T05:12:15;7.60;;;6.10;;
5937;SDS011;2994;51.220;4.412;2022-07-23T05:14:40;9.23;;;6.83;;
5937;SDS011;2994;51.220;4.412;2022-07-23T05:17:06;8.67;;;7.37;;
5937;SDS011;2994;51.220;4.412;2022-07-23T05:19:33;8.23;;;6.53;;
5937;SDS011;2994;51.220;4.412;2022-07-23T05:21:58;8.10;;;7.30;;
5937;SDS011;2994;51.220;4.412;2022-07-23T05:24:24;7.70;;;6.80;;
5937;SDS011;2994;51.220;4.412;2022-07-23T05:26:49;7.20;;;6.50;;
5937;SDS011;2994;51.220;4.412;2022-07-23T05:29:15;7.67;;;6.73;;
5937;SDS011;2994;51.220;4.412;2022-07-23T05:31:40;7.03;;;6.43;;
5937;SDS011;2994;51.220;4.412;2022-07-23T05:34:06;7.77;;;7.00;;
5937;SDS011;2994;51.220;4.412;2022-07-23T05:36:31;8.40;;;7.50;;
5937;SDS011;2994;51.220;4.412;2022-07-23T05:38:57;10.00;;;7.70;;
5937;SDS011;2994;51.220;4.412;2022-07-23T05:41:23;7.70;;;6.00;;
5937;SDS011;2994;51.220;4.412;2022-07-23T05:43:49;8.50;;;7.00;;
5937;SDS011;2994;51.220;4.412;2022-07-23T05:46:14;6.53;;;5.93;;
5937;SDS011;2994;51.220;4.412;2022-07-23T05:48:40;7.00;;;6.30;;
5937;SDS011;2994;51.220;4.412;2022-07-23T05:51:07;8.20;;;6.17;;
5937;SDS011;2994;51.220;4.412;2022-07-23T05:53:33;6.60;;;5.73;;
5937;SDS011;2994;51.220;4.412;2022-07-23T05:55:59;7.30;;;6.07;;
5937;SDS011;2994;51.220;4.412;2022-07-23T05:58:25;7.00;;;6.33;;
5937;SDS011;2994;51.220;4.412;2022-07-23T06:00:50;6.80;;;6.07;;
5937;SDS011;2994;51.220;4.412;2022-07-23T06:03:16;9.83;;;7.47;;
5937;SDS011;2994;51.220;4.412;2022-07-23T06:05:41;8.63;;;6.70;;
5937;SDS011;2994;51.220;4.412;2022-07-23T06:08:07;8.10;;;6.43;;
5937;SDS011;2994;51.220;4.412;2022-07-23T06:10:32;7.10;;;6.40;;
5937;SDS011;2994;51.220;4.412;2022-07-23T06:12:58;6.97;;;6.27;;
5937;SDS011;2994;51.220;4.412;2022-07-23T06:15:23;7.80;;;6.03;;
5937;SDS011;2994;51.220;4.412;2022-07-23T06:17:49;8.20;;;6.90;;
5937;SDS011;2994;51.220;4.412;2022-07-23T06:20:14;10.50;;;7.40;;
5937;SDS011;2994;51.220;4.412;2022-07-23T06:22:40;7.93;;;6.17;;
5937;SDS011;2994;51.220;4.412;2022-07-23T06:25:07;7.23;;;6.53;;
5937;SDS011;2994;51.220;4.412;2022-07-23T06:27:32;6.57;;;5.83;;
5937;SDS011;2994;51.220;4.412;2022-07-23T06:29:58;6.37;;;5.67;;
5937;SDS011;2994;51.220;4.412;2022-07-23T06:32:23;7.63;;;6.93;;
5937;SDS011;2994;51.220;4.412;2022-07-23T06:34:49;6.37;;;5.23;;
5937;SDS011;2994;51.220;4.412;2022-07-23T06:37:14;6.63;;;6.00;;
5937;SDS011;2994;51.220;4.412;2022-07-23T06:39:40;7.10;;;6.40;;
5937;SDS011;2994;51.220;4.412;2022-07-23T06:42:05;5.30;;;4.80;;
5937;SDS011;2994;51.220;4.412;2022-07-23T06:44:31;8.07;;;5.73;;
5937;SDS011;2994;51.220;4.412;2022-07-23T06:46:56;8.10;;;6.37;;
5937;SDS011;2994;51.220;4.412;2022-07-23T06:49:22;7.30;;;5.80;;
5937;SDS011;2994;51.220;4.412;2022-07-23T06:51:47;6.37;;;5.77;;
5937;SDS011;2994;51.220;4.412;2022-07-23T06:54:13;7.40;;;6.00;;
5937;SDS011;2994;51.220;4.412;2022-07-23T06:56:38;7.10;;;5.80;;
5937;SDS011;2994;51.220;4.412;2022-07-23T06:59:04;6.67;;;5.97;;
5937;SDS011;2994;51.220;4.412;2022-07-23T07:01:29;6.97;;;5.63;;
5937;SDS011;2994;51.220;4.412;2022-07-23T07:03:55;6.80;;;6.20;;
5937;SDS011;2994;51.220;4.412;2022-07-23T07:06:20;8.97;;;6.77;;
5937;SDS011;2994;51.220;4.412;2022-07-23T07:08:46;7.20;;;6.27;;
5937;SDS011;2994;51.220;4.412;2022-07-23T07:11:11;7.67;;;6.87;;
5937;SDS011;2994;51.220;4.412;2022-07-23T07:13:37;6.07;;;5.00;;
5937;SDS011;2994;51.220;4.412;2022-07-23T07:16:03;6.03;;;4.90;;
5937;SDS011;2994;51.220;4.412;2022-07-23T07:18:29;7.33;;;5.27;;
5937;SDS011;2994;51.220;4.412;2022-07-23T07:20:56;7.17;;;4.97;;
5937;SDS011;2994;51.220;4.412;2022-07-23T07:23:22;6.53;;;4.40;;
5937;SDS011;2994;51.220;4.412;2022-07-23T07:25:47;6.37;;;5.20;;
5937;SDS011;2994;51.220;4.412;2022-07-23T07:28:13;5.63;;;5.13;;
5937;SDS011;2994;51.220;4.412;2022-07-23T07:30:38;6.20;;;5.37;;
5937;SDS011;2994;51.220;4.412;2022-07-23T07:33:04;5.70;;;5.00;;
5937;SDS011;2994;51.220;4.412;2022-07-23T07:35:29;4.60;;;4.10;;
5937;SDS011;2994;51.220;4.412;2022-07-23T07:37:57;4.70;;;4.27;;
5937;SDS011;2994;51.220;4.412;2022-07-23T07:40:23;6.20;;;4.57;;
5937;SDS011;2994;51.220;4.412;2022-07-23T07:42:50;7.27;;;5.27;;
5937;SDS011;2994;51.220;4.412;2022-07-23T07:45:17;6.80;;;5.30;;
5937;SDS011;2994;51.220;4.412;2022-07-23T07:47:48;4.43;;;4.03;;
5937;SDS011;2994;51.220;4.412;2022-07-23T07:50:19;6.83;;;5.07;;
5937;SDS011;2994;51.220;4.412;2022-07-23T07:52:46;4.63;;;4.20;;
5937;SDS011;2994;51.220;4.412;2022-07-23T07:55:12;5.13;;;4.50;;
5937;SDS011;2994;51.220;4.412;2022-07-23T07:57:38;5.13;;;4.63;;
5937;SDS011;2994;51.220;4.412;2022-07-23T08:00:04;7.40;;;5.00;;
5937;SDS011;2994;51.220;4.412;2022-07-23T08:02:44;10.83;;;6.53;;
5937;SDS011;2994;51.220;4.412;2022-07-23T08:05:11;6.53;;;4.63;;
5937;SDS011;2994;51.220;4.412;2022-07-23T08:07:37;8.60;;;5.30;;
5937;SDS011;2994;51.220;4.412;2022-07-23T08:10:04;5.87;;;5.37;;
5937;SDS011;2994;51.220;4.412;2022-07-23T08:15:15;8.40;;;5.10;;
5937;SDS011;2994;51.220;4.412;2022-07-23T08:17:42;6.67;;;5.50;;
5937;SDS011;2994;51.220;4.412;2022-07-23T08:20:10;5.10;;;4.60;;
5937;SDS011;2994;51.220;4.412;2022-07-23T08:25:16;7.40;;;4.73;;
5937;SDS011;2994;51.220;4.412;2022-07-23T08:27:46;4.83;;;4.33;;
5937;SDS011;2994;51.220;4.412;2022-07-23T08:30:12;5.47;;;4.60;;
5937;SDS011;2994;51.220;4.412;2022-07-23T08:37:53;5.90;;;4.57;;
5937;SDS011;2994;51.220;4.412;2022-07-23T08:40:20;6.40;;;4.27;;
5937;SDS011;2994;51.220;4.412;2022-07-23T08:42:49;4.30;;;3.90;;
5937;SDS011;2994;51.220;4.412;2022-07-23T08:45:16;4.80;;;4.23;;
5937;SDS011;2994;51.220;4.412;2022-07-23T08:47:44;6.60;;;5.03;;
5937;SDS011;2994;51.220;4.412;2022-07-23T08:50:10;4.73;;;4.30;;
5937;SDS011;2994;51.220;4.412;2022-07-23T08:52:35;5.27;;;4.60;;
5937;SDS011;2994;51.220;4.412;2022-07-23T08:55:02;5.63;;;3.90;;
5937;SDS011;2994;51.220;4.412;2022-07-23T08:57:28;5.23;;;4.20;;
5937;SDS011;2994;51.220;4.412;2022-07-23T08:59:54;4.87;;;4.23;;
5937;SDS011;2994;51.220;4.412;2022-07-23T09:02:19;3.97;;;3.57;;
5937;SDS011;2994;51.220;4.412;2022-07-23T09:04:45;6.43;;;4.47;;
5937;SDS011;2994;51.220;4.412;2022-07-23T09:07:10;5.33;;;4.83;;
5937;SDS011;2994;51.220;4.412;2022-07-23T09:09:35;4.43;;;4.10;;
5937;SDS011;2994;51.220;4.412;2022-07-23T09:14:41;4.47;;;4.07;;
5937;SDS011;2994;51.220;4.412;2022-07-23T09:17:09;6.97;;;4.40;;
5937;SDS011;2994;51.220;4.412;2022-07-23T09:19:44;4.17;;;3.77;;
5937;SDS011;2994;51.220;4.412;2022-07-23T09:22:17;6.23;;;4.90;;
5937;SDS011;2994;51.220;4.412;2022-07-23T09:30:17;5.23;;;4.30;;
5937;SDS011;2994;51.220;4.412;2022-07-23T09:32:43;6.00;;;4.63;;
5937;SDS011;2994;51.220;4.412;2022-07-23T09:35:08;5.40;;;4.90;;
5937;SDS011;2994;51.220;4.412;2022-07-23T09:37:34;9.07;;;6.33;;
5937;SDS011;2994;51.220;4.412;2022-07-23T09:40:03;8.03;;;5.53;;
5937;SDS011;2994;51.220;4.412;2022-07-23T09:42:30;6.60;;;6.00;;
5937;SDS011;2994;51.220;4.412;2022-07-23T09:44:56;5.90;;;5.10;;
5937;SDS011;2994;51.220;4.412;2022-07-23T09:47:24;5.20;;;4.70;;
5937;SDS011;2994;51.220;4.412;2022-07-23T09:50:07;5.03;;;4.33;;
5937;SDS011;2994;51.220;4.412;2022-07-23T09:52:35;4.77;;;4.37;;
5937;SDS011;2994;51.220;4.412;2022-07-23T09:55:07;4.50;;;3.80;;
5937;SDS011;2994;51.220;4.412;2022-07-23T09:57:33;6.57;;;4.50;;
5937;SDS011;2994;51.220;4.412;2022-07-23T10:00:06;5.60;;;4.97;;
5937;SDS011;2994;51.220;4.412;2022-07-23T10:02:36;4.73;;;4.20;;
5937;SDS011;2994;51.220;4.412;2022-07-23T10:05:02;4.97;;;4.47;;
5937;SDS011;2994;51.220;4.412;2022-07-23T10:07:32;4.30;;;3.90;;
5937;SDS011;2994;51.220;4.412;2022-07-23T10:10:00;4.57;;;3.93;;
5937;SDS011;2994;51.220;4.412;2022-07-23T10:12:26;4.90;;;4.47;;
5937;SDS011;2994;51.220;4.412;2022-07-23T10:15:02;6.30;;;4.73;;
5937;SDS011;2994;51.220;4.412;2022-07-23T10:17:29;4.83;;;4.30;;
5937;SDS011;2994;51.220;4.412;2022-07-23T10:19:55;5.40;;;4.90;;
5937;SDS011;2994;51.220;4.412;2022-07-23T10:22:22;6.87;;;5.20;;
5937;SDS011;2994;51.220;4.412;2022-07-23T10:24:52;5.73;;;4.67;;
5937;SDS011;2994;51.220;4.412;2022-07-23T10:30:07;4.37;;;3.97;;
5937;SDS011;2994;51.220;4.412;2022-07-23T10:35:10;5.33;;;3.90;;
5937;SDS011;2994;51.220;4.412;2022-07-23T10:38:07;4.70;;;4.00;;
5937;SDS011;2994;51.220;4.412;2022-07-23T10:40:37;3.87;;;3.43;;
5937;SDS011;2994;51.220;4.412;2022-07-23T10:43:28;4.77;;;4.27;;
5937;SDS011;2994;51.220;4.412;2022-07-23T10:45:55;4.50;;;3.47;;
5937;SDS011;2994;51.220;4.412;2022-07-23T10:48:21;4.70;;;3.60;;
5937;SDS011;2994;51.220;4.412;2022-07-23T10:51:10;4.43;;;3.70;;
5937;SDS011;2994;51.220;4.412;2022-07-23T10:56:17;5.90;;;4.10;;
5937;SDS011;2994;51.220;4.412;2022-07-23T10:59:16;3.80;;;3.20;;
5937;SDS011;2994;51.220;4.412;2022-07-23T11:01:41;3.43;;;3.13;;
5937;SDS011;2994;51.220;4.412;2022-07-23T11:04:07;4.30;;;3.57;;
5937;SDS011;2994;51.220;4.412;2022-07-23T11:12:31;4.47;;;3.13;;
5937;SDS011;2994;51.220;4.412;2022-07-23T11:15:09;3.63;;;3.33;;
5937;SDS011;2994;51.220;4.412;2022-07-23T11:17:57;3.93;;;3.57;;
5937;SDS011;2994;51.220;4.412;2022-07-23T11:20:27;4.20;;;3.80;;
5937;SDS011;2994;51.220;4.412;2022-07-23T11:22:56;4.50;;;3.80;;
5937;SDS011;2994;51.220;4.412;2022-07-23T11:27:55;4.87;;;3.90;;
5937;SDS011;2994;51.220;4.412;2022-07-23T11:30:41;4.60;;;3.93;;
5937;SDS011;2994;51.220;4.412;2022-07-23T11:35:34;4.57;;;4.17;;
5937;SDS011;2994;51.220;4.412;2022-07-23T11:38:05;4.07;;;3.73;;
5937;SDS011;2994;51.220;4.412;2022-07-23T11:40:32;5.47;;;4.97;;
5937;SDS011;2994;51.220;4.412;2022-07-23T11:43:01;4.30;;;3.90;;
5937;SDS011;2994;51.220;4.412;2022-07-23T11:45:31;5.00;;;4.60;;
5937;SDS011;2994;51.220;4.412;2022-07-23T11:47:59;4.43;;;3.83;;
5937;SDS011;2994;51.220;4.412;2022-07-23T11:50:25;3.93;;;3.63;;
5937;SDS011;2994;51.220;4.412;2022-07-23T11:52:51;4.33;;;3.93;;
5937;SDS011;2994;51.220;4.412;2022-07-23T11:55:17;4.43;;;3.93;;
5937;SDS011;2994;51.220;4.412;2022-07-23T11:57:44;4.20;;;3.90;;
5937;SDS011;2994;51.220;4.412;2022-07-23T12:00:16;4.00;;;3.17;;
5937;SDS011;2994;51.220;4.412;2022-07-23T12:02:50;4.13;;;3.73;;
5937;SDS011;2994;51.220;4.412;2022-07-23T12:05:19;3.60;;;3.30;;
5937;SDS011;2994;51.220;4.412;2022-07-23T12:07:50;4.50;;;4.10;;
5937;SDS011;2994;51.220;4.412;2022-07-23T12:10:24;3.60;;;3.30;;
5937;SDS011;2994;51.220;4.412;2022-07-23T12:15:16;3.80;;;3.47;;
5937;SDS011;2994;51.220;4.412;2022-07-23T12:17:45;3.53;;;3.23;;
5937;SDS011;2994;51.220;4.412;2022-07-23T12:20:13;4.47;;;3.77;;
5937;SDS011;2994;51.220;4.412;2022-07-23T12:22:46;3.67;;;3.37;;
5937;SDS011;2994;51.220;4.412;2022-07-23T12:27:40;4.73;;;3.00;;
5937;SDS011;2994;51.220;4.412;2022-07-23T12:30:16;3.70;;;2.30;;
5937;SDS011;2994;51.220;4.412;2022-07-23T12:32:43;2.63;;;2.43;;
5937;SDS011;2994;51.220;4.412;2022-07-23T12:35:12;3.80;;;2.70;;
5937;SDS011;2994;51.220;4.412;2022-07-23T12:37:39;3.30;;;2.70;;
5937;SDS011;2994;51.220;4.412;2022-07-23T12:42:45;3.10;;;2.63;;
5937;SDS011;2994;51.220;4.412;2022-07-23T12:45:12;3.23;;;3.00;;
5937;SDS011;2994;51.220;4.412;2022-07-23T12:47:56;4.60;;;3.00;;
5937;SDS011;2994;51.220;4.412;2022-07-23T12:53:08;3.63;;;3.33;;
5937;SDS011;2994;51.220;4.412;2022-07-23T12:55:40;3.63;;;3.33;;
5937;SDS011;2994;51.220;4.412;2022-07-23T12:58:10;3.63;;;3.33;;
5937;SDS011;2994;51.220;4.412;2022-07-23T13:03:29;2.77;;;2.40;;
5937;SDS011;2994;51.220;4.412;2022-07-23T13:06:03;2.73;;;2.37;;
5937;SDS011;2994;51.220;4.412;2022-07-23T13:08:30;3.03;;;2.83;;
5937;SDS011;2994;51.220;4.412;2022-07-23T13:10:57;2.30;;;2.20;;
5937;SDS011;2994;51.220;4.412;2022-07-23T13:13:24;3.50;;;2.87;;
5937;SDS011;2994;51.220;4.412;2022-07-23T13:15:52;2.80;;;2.50;;
5937;SDS011;2994;51.220;4.412;2022-07-23T13:18:18;3.93;;;2.50;;
5937;SDS011;2994;51.220;4.412;2022-07-23T13:20:44;2.80;;;2.60;;
5937;SDS011;2994;51.220;4.412;2022-07-23T13:23:11;3.10;;;2.90;;
5937;SDS011;2994;51.220;4.412;2022-07-23T13:25:36;3.20;;;2.63;;
5937;SDS011;2994;51.220;4.412;2022-07-23T13:28:02;2.50;;;2.30;;
5937;SDS011;2994;51.220;4.412;2022-07-23T13:30:28;2.70;;;2.40;;
5937;SDS011;2994;51.220;4.412;2022-07-23T13:32:54;3.20;;;2.67;;
5937;SDS011;2994;51.220;4.412;2022-07-23T13:35:19;4.00;;;2.90;;
5937;SDS011;2994;51.220;4.412;2022-07-23T13:37:45;3.53;;;2.87;;
5937;SDS011;2994;51.220;4.412;2022-07-23T13:40:10;2.70;;;2.50;;
5937;SDS011;2994;51.220;4.412;2022-07-23T13:42:36;3.30;;;3.10;;
5937;SDS011;2994;51.220;4.412;2022-07-23T13:45:02;2.60;;;2.40;;
5937;SDS011;2994;51.220;4.412;2022-07-23T13:47:28;3.73;;;3.43;;
5937;SDS011;2994;51.220;4.412;2022-07-23T13:49:54;2.50;;;2.27;;
5937;SDS011;2994;51.220;4.412;2022-07-23T13:52:19;3.47;;;3.17;;
5937;SDS011;2994;51.220;4.412;2022-07-23T13:54:45;3.60;;;3.30;;
5937;SDS011;2994;51.220;4.412;2022-07-23T13:57:10;3.50;;;2.90;;
5937;SDS011;2994;51.220;4.412;2022-07-23T13:59:35;3.17;;;2.93;;
5937;SDS011;2994;51.220;4.412;2022-07-23T14:02:02;4.03;;;3.30;;
5937;SDS011;2994;51.220;4.412;2022-07-23T14:04:28;2.90;;;2.63;;
5937;SDS011;2994;51.220;4.412;2022-07-23T14:06:53;2.97;;;2.77;;
5937;SDS011;2994;51.220;4.412;2022-07-23T14:09:19;3.77;;;2.90;;
5937;SDS011;2994;51.220;4.412;2022-07-23T14:11:44;3.33;;;3.03;;
5937;SDS011;2994;51.220;4.412;2022-07-23T14:14:10;3.30;;;3.00;;
5937;SDS011;2994;51.220;4.412;2022-07-23T14:16:35;4.40;;;3.30;;
5937;SDS011;2994;51.220;4.412;2022-07-23T14:19:00;2.80;;;2.50;;
5937;SDS011;2994;51.220;4.412;2022-07-23T14:21:27;2.97;;;2.77;;
5937;SDS011;2994;51.220;4.412;2022-07-23T14:23:52;2.83;;;2.50;;
5937;SDS011;2994;51.220;4.412;2022-07-23T14:26:18;3.87;;;2.90;;
5937;SDS011;2994;51.220;4.412;2022-07-23T14:28:44;3.10;;;2.90;;
5937;SDS011;2994;51.220;4.412;2022-07-23T14:31:09;3.70;;;3.00;;
5937;SDS011;2994;51.220;4.412;2022-07-23T14:33:35;3.43;;;3.13;;
5937;SDS011;2994;51.220;4.412;2022-07-23T14:36:00;2.50;;;2.30;;
5937;SDS011;2994;51.220;4.412;2022-07-23T14:38:26;3.00;;;2.73;;
5937;SDS011;2994;51.220;4.412;2022-07-23T14:40:52;3.40;;;2.83;;
5937;SDS011;2994;51.220;4.412;2022-07-23T14:43:17;3.67;;;3.37;;
5937;SDS011;2994;51.220;4.412;2022-07-23T14:45:43;3.60;;;3.23;;
5937;SDS011;2994;51.220;4.412;2022-07-23T14:48:08;3.70;;;3.40;;
5937;SDS011;2994;51.220;4.412;2022-07-23T14:50:34;3.60;;;3.33;;
5937;SDS011;2994;51.220;4.412;2022-07-23T14:52:59;3.57;;;3.27;;
5937;SDS011;2994;51.220;4.412;2022-07-23T14:55:25;4.77;;;4.10;;
5937;SDS011;2994;51.220;4.412;2022-07-23T14:57:50;3.73;;;3.43;;
5937;SDS011;2994;51.220;4.412;2022-07-23T15:00:16;3.50;;;3.20;;
5937;SDS011;2994;51.220;4.412;2022-07-23T15:02:42;3.90;;;3.60;;
5937;SDS011;2994;51.220;4.412;2022-07-23T15:05:07;4.03;;;3.43;;
5937;SDS011;2994;51.220;4.412;2022-07-23T15:07:33;5.20;;;3.70;;
5937;SDS011;2994;51.220;4.412;2022-07-23T15:09:58;4.07;;;3.73;;
5937;SDS011;2994;51.220;4.412;2022-07-23T15:12:24;3.83;;;3.53;;
5937;SDS011;2994;51.220;4.412;2022-07-23T15:14:50;5.10;;;4.00;;
5937;SDS011;2994;51.220;4.412;2022-07-23T15:17:15;3.47;;;3.17;;
5937;SDS011;2994;51.220;4.412;2022-07-23T15:19:41;4.00;;;3.70;;
5937;SDS011;2994;51.220;4.412;2022-07-23T15:22:06;3.40;;;3.10;;
5937;SDS011;2994;51.220;4.412;2022-07-23T15:24:32;4.30;;;4.00;;
5937;SDS011;2994;51.220;4.412;2022-07-23T15:26:57;4.43;;;3.97;;
5937;SDS011;2994;51.220;4.412;2022-07-23T15:29:23;3.77;;;3.47;;
5937;SDS011;2994;51.220;4.412;2022-07-23T15:31:49;3.90;;;3.60;;
5937;SDS011;2994;51.220;4.412;2022-07-23T15:34:14;3.97;;;3.67;;
5937;SDS011;2994;51.220;4.412;2022-07-23T15:36:40;4.07;;;3.77;;
5937;SDS011;2994;51.220;4.412;2022-07-23T15:39:06;4.40;;;4.03;;
5937;SDS011;2994;51.220;4.412;2022-07-23T15:41:31;4.17;;;3.90;;
5937;SDS011;2994;51.220;4.412;2022-07-23T15:43:57;5.40;;;4.63;;
5937;SDS011;2994;51.220;4.412;2022-07-23T15:46:22;4.80;;;4.40;;
5937;SDS011;2994;51.220;4.412;2022-07-23T15:48:48;5.37;;;4.90;;
5937;SDS011;2994;51.220;4.412;2022-07-23T15:51:14;4.53;;;4.13;;
5937;SDS011;2994;51.220;4.412;2022-07-23T15:53:40;4.37;;;3.97;;
5937;SDS011;2994;51.220;4.412;2022-07-23T15:56:06;4.50;;;4.10;;
5937;SDS011;2994;51.220;4.412;2022-07-23T15:58:33;4.63;;;4.33;;
5937;SDS011;2994;51.220;4.412;2022-07-23T16:00:59;5.07;;;4.70;;
5937;SDS011;2994;51.220;4.412;2022-07-23T16:03:28;4.20;;;3.90;;